createdAt,value
2018-07-23T00:01:29.117Z,30.50
2018-07-23T00:03:41.570Z,46.87
2018-07-23T00:05:53.940Z,51.07
2018-07-23T00:08:06.418Z,48.27
2018-07-23T00:10:18.825Z,50.77
2018-07-23T00:12:31.178Z,50.67
2018-07-23T00:14:43.657Z,55.57
2018-07-23T00:16:56.048Z,55.13
2018-07-23T00:19:08.394Z,50.17
2018-07-23T00:21:20.934Z,47.47
2018-07-23T00:23:33.281Z,42.33
2018-07-23T00:25:45.676Z,50.33
2018-07-23T00:27:58.189Z,48.87
2018-07-23T00:30:10.598Z,48.00
2018-07-23T00:32:22.969Z,36.63
2018-07-23T00:34:35.359Z,42.53
2018-07-23T00:36:47.705Z,45.83
2018-07-23T00:39:00.024Z,50.73
2018-07-23T00:41:12.451Z,47.30
2018-07-23T00:43:24.814Z,47.57
2018-07-23T00:45:37.212Z,49.67
2018-07-23T00:47:49.534Z,32.60
2018-07-23T00:50:01.994Z,41.60
2018-07-23T00:52:14.368Z,20.93
2018-07-23T00:54:26.732Z,30.63
2018-07-23T00:56:39.140Z,46.63
2018-07-23T00:58:51.634Z,47.87
2018-07-23T01:01:03.940Z,51.27
2018-07-23T01:03:16.357Z,51.53
2018-07-23T01:05:28.769Z,51.67
2018-07-23T01:07:41.200Z,52.30
2018-07-23T01:09:53.913Z,52.70
2018-07-23T01:12:06.251Z,41.97
2018-07-23T01:14:18.677Z,52.03
2018-07-23T01:16:31.099Z,48.97
2018-07-23T01:18:43.528Z,50.97
2018-07-23T01:20:56.092Z,43.00
2018-07-23T01:23:09.323Z,43.13
2018-07-23T01:25:21.657Z,49.30
2018-07-23T01:27:33.991Z,39.87
2018-07-23T01:29:46.381Z,46.87
2018-07-23T01:31:58.768Z,40.77
2018-07-23T01:34:11.189Z,48.23
2018-07-23T01:36:23.528Z,45.57
2018-07-23T01:38:35.915Z,43.17
2018-07-23T01:40:48.366Z,43.53
2018-07-23T01:43:00.895Z,37.40
2018-07-23T01:45:13.371Z,43.17
2018-07-23T01:47:25.861Z,47.57
2018-07-23T01:49:38.251Z,42.57
2018-07-23T01:51:50.665Z,43.87
2018-07-23T01:54:03.074Z,39.03
2018-07-23T01:56:15.421Z,42.33
2018-07-23T01:58:28.046Z,39.10
2018-07-23T02:00:40.410Z,39.93
2018-07-23T02:02:52.881Z,42.47
2018-07-23T02:05:05.368Z,43.77
2018-07-23T02:07:17.872Z,43.70
2018-07-23T02:09:30.303Z,40.47
2018-07-23T02:11:42.855Z,39.80
2018-07-23T02:13:55.193Z,34.97
2018-07-23T02:16:07.566Z,33.20
2018-07-23T02:18:19.913Z,40.10
2018-07-23T02:20:32.471Z,28.33
2018-07-23T02:22:44.834Z,40.27
2018-07-23T02:24:57.210Z,40.90
2018-07-23T02:27:09.615Z,55.00
2018-07-23T02:29:21.965Z,53.97
2018-07-23T02:31:34.309Z,32.47
2018-07-23T02:33:46.707Z,59.63
2018-07-23T02:35:59.170Z,61.67
2018-07-23T02:38:11.614Z,64.53
2018-07-23T02:40:24.065Z,55.07
2018-07-23T02:42:36.532Z,40.07
2018-07-23T02:44:48.950Z,48.90
2018-07-23T02:47:01.475Z,60.07
2018-07-23T02:49:13.910Z,62.27
2018-07-23T02:51:26.224Z,69.87
2018-07-23T02:53:38.650Z,64.80
2018-07-23T02:55:51.017Z,49.73
2018-07-23T02:58:03.381Z,49.73
2018-07-23T03:00:15.832Z,51.43
2018-07-23T03:02:28.179Z,45.57
2018-07-23T03:04:40.562Z,41.33
2018-07-23T03:06:52.931Z,42.53
2018-07-23T03:09:06.516Z,32.40
2018-07-23T03:11:18.921Z,35.33
2018-07-23T03:13:31.333Z,28.57
2018-07-23T03:15:43.757Z,34.77
2018-07-23T03:17:56.202Z,35.47
2018-07-23T03:20:08.605Z,40.90
2018-07-23T03:22:20.945Z,36.83
2018-07-23T03:24:33.302Z,38.17
2018-07-23T03:26:45.805Z,37.17
2018-07-23T03:28:58.238Z,38.27
2018-07-23T03:31:10.600Z,42.30
2018-07-23T03:33:22.986Z,41.30
2018-07-23T03:35:35.337Z,40.70
2018-07-23T03:37:47.813Z,39.00
2018-07-23T03:40:00.213Z,40.73
2018-07-23T03:42:12.554Z,40.27
2018-07-23T03:44:24.926Z,43.10
2018-07-23T03:46:37.390Z,45.80
2018-07-23T03:48:49.878Z,51.40
2018-07-23T03:51:02.214Z,60.20
2018-07-23T03:53:14.619Z,60.53
2018-07-23T03:55:26.961Z,45.07
2018-07-23T03:57:39.341Z,46.27
2018-07-23T03:59:51.763Z,33.83
2018-07-23T04:02:04.278Z,38.43
2018-07-23T04:04:17.214Z,34.13
2018-07-23T04:06:29.670Z,38.63
2018-07-23T04:08:42.111Z,38.20
2018-07-23T04:10:54.636Z,49.90
2018-07-23T04:13:06.988Z,43.50
2018-07-23T04:15:19.366Z,48.97
2018-07-23T04:17:31.863Z,66.83
2018-07-23T04:19:44.317Z,83.80
2018-07-23T04:21:56.691Z,72.03
2018-07-23T04:24:09.200Z,72.37
2018-07-23T04:26:21.541Z,77.20
2018-07-23T04:28:33.952Z,65.20
2018-07-23T04:30:46.462Z,75.10
2018-07-23T04:32:58.863Z,69.33
2018-07-23T04:35:11.409Z,52.37
2018-07-23T04:37:23.781Z,62.13
2018-07-23T04:39:36.186Z,66.20
2018-07-23T04:41:48.701Z,67.93
2018-07-23T04:44:01.070Z,76.23
2018-07-23T04:46:13.530Z,59.27
2018-07-23T04:48:25.954Z,67.63
2018-07-23T04:50:38.455Z,68.67
2018-07-23T04:52:50.711Z,52.77
2018-07-23T04:55:03.170Z,62.10
2018-07-23T04:57:15.511Z,58.70
2018-07-23T04:59:27.865Z,76.40
2018-07-23T05:01:40.345Z,93.03
2018-07-23T05:03:52.713Z,90.33
2018-07-23T05:06:05.324Z,79.40
2018-07-23T05:08:18.047Z,56.20
2018-07-23T05:10:30.445Z,72.83
2018-07-23T05:12:42.845Z,67.03
2018-07-23T05:14:55.213Z,75.80
2018-07-23T05:17:07.640Z,65.50
2018-07-23T05:19:20.013Z,41.90
2018-07-23T05:21:32.440Z,77.27
2018-07-23T05:23:45.070Z,80.83
2018-07-23T05:25:57.457Z,63.07
2018-07-23T05:28:09.854Z,75.33
2018-07-23T05:30:22.466Z,79.20
2018-07-23T05:32:34.886Z,65.37
2018-07-23T05:34:47.277Z,62.87
2018-07-23T05:36:59.928Z,55.70
2018-07-23T05:39:12.428Z,57.73
2018-07-23T05:41:24.873Z,46.47
2018-07-23T05:43:37.453Z,74.93
2018-07-23T05:45:49.853Z,47.40
2018-07-23T05:48:02.214Z,54.03
2018-07-23T05:50:14.590Z,57.13
2018-07-23T05:52:26.942Z,63.33
2018-07-23T05:54:39.297Z,67.27
2018-07-23T05:56:51.789Z,75.00
2018-07-23T05:59:04.340Z,79.17
2018-07-23T06:01:16.914Z,76.33
2018-07-23T06:03:29.330Z,61.83
2018-07-23T06:05:41.827Z,80.17
2018-07-23T06:07:54.254Z,80.93
2018-07-23T06:10:06.685Z,79.17
2018-07-23T06:12:19.063Z,58.03
2018-07-23T06:14:31.440Z,59.13
2018-07-23T06:16:43.776Z,66.97
2018-07-23T06:18:56.186Z,68.90
2018-07-23T06:21:08.555Z,64.90
2018-07-23T06:23:20.918Z,63.37
2018-07-23T06:25:33.290Z,58.00
2018-07-23T06:27:45.660Z,64.93
2018-07-23T06:29:58.144Z,80.23
2018-07-23T06:32:10.543Z,79.67
2018-07-23T06:34:23.181Z,67.30
2018-07-23T06:36:35.575Z,87.97
2018-07-23T06:38:48.147Z,52.67
2018-07-23T06:41:00.526Z,60.73
2018-07-23T06:43:13.224Z,61.77
2018-07-23T06:45:26.414Z,63.13
2018-07-23T06:47:38.933Z,68.70
2018-07-23T06:49:51.295Z,69.90
2018-07-23T06:52:03.695Z,48.77
2018-07-23T06:54:16.118Z,46.67
2018-07-23T06:56:28.609Z,60.10
2018-07-23T06:58:40.997Z,64.70
2018-07-23T07:00:53.436Z,57.23
2018-07-23T07:03:06.469Z,58.77
2018-07-23T07:05:18.872Z,60.90
2018-07-23T07:07:31.287Z,55.37
2018-07-23T07:09:43.710Z,52.83
2018-07-23T07:11:56.081Z,49.63
2018-07-23T07:14:08.788Z,46.77
2018-07-23T07:16:21.431Z,58.20
2018-07-23T07:18:33.848Z,42.33
2018-07-23T07:20:46.242Z,46.63
2018-07-23T07:22:58.662Z,42.90
2018-07-23T07:25:11.046Z,49.70
2018-07-23T07:27:23.563Z,41.70
2018-07-23T07:29:35.967Z,44.53
2018-07-23T07:31:48.386Z,46.27
2018-07-23T07:34:01.354Z,54.07
2018-07-23T07:36:13.783Z,47.93
2018-07-23T07:38:26.239Z,37.23
2018-07-23T07:40:39.083Z,44.80
2018-07-23T07:42:52.247Z,51.70
2018-07-23T07:45:05.400Z,42.97
2018-07-23T07:47:17.802Z,53.63
2018-07-23T07:49:30.243Z,48.13
2018-07-23T07:51:42.610Z,49.47
2018-07-23T07:53:55.064Z,48.77
2018-07-23T07:56:08.023Z,46.63
2018-07-23T07:58:20.571Z,44.37
2018-07-23T08:00:32.927Z,43.40
2018-07-23T08:02:46.347Z,44.17
2018-07-23T08:04:59.638Z,43.47
2018-07-23T08:07:12.153Z,40.67
2018-07-23T08:09:24.506Z,42.10
2018-07-23T08:11:37.408Z,43.27
2018-07-23T08:13:49.966Z,41.17
2018-07-23T08:16:02.373Z,36.27
2018-07-23T08:18:14.765Z,39.73
2018-07-23T08:20:27.500Z,38.27
2018-07-23T08:22:39.829Z,36.57
2018-07-23T08:24:52.237Z,36.53
2018-07-23T08:27:04.966Z,33.60
2018-07-23T08:29:17.377Z,33.00
2018-07-23T08:31:29.834Z,37.70
2018-07-23T08:33:42.282Z,33.73
2018-07-23T08:35:55.753Z,33.23
2018-07-23T08:38:08.154Z,36.60
2018-07-23T08:40:20.643Z,38.43
2018-07-23T08:42:33.993Z,31.00
2018-07-23T08:44:46.506Z,29.53
2018-07-23T08:46:58.959Z,30.27
2018-07-23T08:49:11.316Z,27.33
2018-07-23T08:51:23.778Z,31.57
2018-07-23T08:53:36.101Z,27.23
2018-07-23T08:55:48.468Z,28.47
2018-07-23T08:58:01.559Z,30.60
2018-07-23T09:00:13.937Z,25.83
2018-07-23T09:02:26.424Z,28.20
2018-07-23T09:04:38.795Z,28.63
2018-07-23T09:06:51.335Z,29.20
2018-07-23T09:09:05.363Z,27.23
2018-07-23T09:11:17.898Z,29.70
2018-07-23T09:13:30.290Z,28.70
2018-07-23T09:15:42.634Z,26.70
2018-07-23T09:17:55.124Z,27.83
2018-07-23T09:20:07.540Z,28.40
2018-07-23T09:22:19.946Z,26.37
2018-07-23T09:24:32.394Z,25.40
2018-07-23T09:26:44.854Z,25.77
2018-07-23T09:28:57.232Z,22.53
2018-07-23T09:31:09.800Z,24.73
2018-07-23T09:33:23.464Z,22.33
2018-07-23T09:35:36.012Z,18.67
2018-07-23T09:37:48.430Z,22.30
2018-07-23T09:40:00.849Z,23.27
2018-07-23T09:42:13.210Z,22.80
2018-07-23T09:44:25.689Z,20.30
2018-07-23T09:46:38.134Z,19.77
2018-07-23T09:48:51.294Z,22.17
2018-07-23T09:51:03.772Z,20.53
2018-07-23T09:53:16.125Z,18.90
2018-07-23T09:55:29.183Z,16.80
2018-07-23T09:57:41.514Z,18.43
2018-07-23T09:59:53.982Z,16.77
2018-07-23T10:02:06.437Z,17.60
2018-07-23T10:04:18.889Z,18.07
2018-07-23T10:06:31.229Z,19.37
2018-07-23T10:08:43.754Z,17.97
2018-07-23T10:10:56.293Z,19.53
2018-07-23T10:13:08.611Z,19.00
2018-07-23T10:15:20.995Z,19.40
2018-07-23T10:17:33.340Z,17.17
2018-07-23T10:19:45.882Z,17.57
2018-07-23T10:21:58.373Z,16.97
2018-07-23T10:24:10.815Z,17.60
2018-07-23T10:26:23.177Z,15.77
2018-07-23T10:28:35.544Z,19.50
2018-07-23T10:30:47.929Z,16.17
2018-07-23T10:33:00.390Z,17.00
2018-07-23T10:35:12.805Z,18.50
2018-07-23T10:37:25.317Z,14.67
2018-07-23T10:39:37.805Z,17.67
2018-07-23T10:41:50.180Z,16.97
2018-07-23T10:44:02.629Z,16.50
2018-07-23T10:46:15.080Z,14.53
2018-07-23T10:48:27.498Z,15.53
2018-07-23T10:50:40.024Z,15.07
2018-07-23T10:52:52.441Z,15.50
2018-07-23T10:55:04.851Z,14.70
2018-07-23T10:57:17.328Z,17.23
2018-07-23T10:59:29.711Z,15.57
2018-07-23T11:01:42.219Z,14.83
2018-07-23T11:03:54.735Z,14.60
2018-07-23T11:06:07.137Z,15.03
2018-07-23T11:08:19.481Z,14.70
2018-07-23T11:10:31.937Z,14.20
2018-07-23T11:12:44.378Z,14.87
2018-07-23T11:14:56.869Z,14.60
2018-07-23T11:17:09.249Z,15.80
2018-07-23T11:19:21.812Z,15.20
2018-07-23T11:21:34.142Z,15.60
2018-07-23T11:23:46.486Z,14.00
2018-07-23T11:25:58.952Z,14.43
2018-07-23T11:28:11.321Z,14.03
2018-07-23T11:30:23.718Z,15.43
2018-07-23T11:32:36.283Z,16.80
2018-07-23T11:34:48.730Z,14.80
2018-07-23T11:37:01.106Z,15.20
2018-07-23T11:39:13.527Z,13.40
2018-07-23T11:41:25.920Z,14.10
2018-07-23T11:43:38.397Z,13.10
2018-07-23T11:45:50.836Z,12.57
2018-07-23T11:48:03.212Z,12.83
2018-07-23T11:50:15.603Z,13.87
2018-07-23T11:52:27.965Z,12.70
2018-07-23T11:54:40.475Z,13.30
2018-07-23T11:56:52.862Z,14.90
2018-07-23T11:59:05.330Z,14.93
2018-07-23T12:01:17.760Z,12.93
2018-07-23T12:03:30.197Z,13.20
2018-07-23T12:05:42.618Z,12.57
2018-07-23T12:07:55.099Z,12.90
2018-07-23T12:10:07.474Z,11.87
2018-07-23T12:12:19.879Z,12.37
2018-07-23T12:14:32.469Z,11.73
2018-07-23T12:16:44.894Z,11.70
2018-07-23T12:18:57.322Z,12.20
2018-07-23T12:21:09.744Z,12.00
2018-07-23T12:23:22.116Z,12.20
2018-07-23T12:25:34.579Z,11.80
2018-07-23T12:27:46.933Z,12.07
2018-07-23T12:29:59.311Z,12.57
2018-07-23T12:32:11.781Z,12.83
2018-07-23T12:34:24.293Z,13.60
2018-07-23T12:36:36.711Z,11.87
2018-07-23T12:38:49.164Z,11.17
2018-07-23T12:41:01.475Z,11.67
2018-07-23T12:43:13.974Z,10.63
2018-07-23T12:45:26.486Z,11.93
2018-07-23T12:47:38.948Z,11.10
2018-07-23T12:49:51.326Z,10.07
2018-07-23T12:52:03.792Z,11.80
2018-07-23T12:54:16.254Z,11.30
2018-07-23T12:56:28.671Z,11.07
2018-07-23T12:58:41.210Z,12.77
2018-07-23T13:00:53.720Z,11.53
2018-07-23T13:03:06.146Z,11.40
2018-07-23T13:05:18.549Z,11.83
2018-07-23T13:07:31.081Z,11.40
2018-07-23T13:09:43.637Z,10.63
2018-07-23T13:11:56.072Z,10.77
2018-07-23T13:14:08.518Z,10.20
2018-07-23T13:16:21.062Z,10.43
2018-07-23T13:18:33.510Z,10.70
2018-07-23T13:20:45.986Z,10.87
2018-07-23T13:22:58.355Z,11.60
2018-07-23T13:25:10.832Z,10.87
2018-07-23T13:27:23.301Z,11.37
2018-07-23T13:29:35.674Z,11.20
2018-07-23T13:31:48.015Z,10.97
2018-07-23T13:34:00.553Z,10.27
2018-07-23T13:36:12.902Z,10.93
2018-07-23T13:38:25.463Z,11.47
2018-07-23T13:40:37.794Z,11.03
2018-07-23T13:42:50.248Z,10.60
2018-07-23T13:45:02.877Z,10.33
2018-07-23T13:47:15.296Z,9.30
2018-07-23T13:49:27.667Z,9.53
2018-07-23T13:51:40.133Z,10.07
2018-07-23T13:53:52.480Z,9.93
2018-07-23T13:56:05.004Z,9.87
2018-07-23T13:58:17.425Z,10.50
2018-07-23T14:00:29.845Z,11.10
2018-07-23T14:02:42.243Z,11.33
2018-07-23T14:04:54.706Z,12.27
2018-07-23T14:07:07.289Z,11.43
2018-07-23T14:09:19.721Z,10.80
2018-07-23T14:11:32.167Z,11.50
2018-07-23T14:13:44.510Z,11.83
2018-07-23T14:15:56.986Z,12.10
2018-07-23T14:18:09.398Z,11.40
2018-07-23T14:20:21.854Z,12.43
2018-07-23T14:22:34.285Z,11.90
2018-07-23T14:24:46.662Z,10.77
2018-07-23T14:26:59.115Z,10.97
2018-07-23T14:29:11.489Z,10.37
2018-07-23T14:31:23.873Z,10.23
2018-07-23T14:33:36.409Z,10.60
2018-07-23T14:35:48.829Z,11.03
2018-07-23T14:38:01.301Z,11.00
2018-07-23T14:40:13.730Z,12.07
2018-07-23T14:42:26.118Z,11.20
2018-07-23T14:44:38.506Z,10.43
2018-07-23T14:46:50.931Z,10.40
2018-07-23T14:49:03.412Z,10.63
2018-07-23T14:51:15.909Z,10.27
2018-07-23T14:53:28.457Z,11.10
2018-07-23T14:55:40.842Z,10.87
2018-07-23T14:57:53.337Z,10.93
2018-07-23T15:00:05.864Z,10.20
2018-07-23T15:02:18.274Z,10.63
2018-07-23T15:04:30.709Z,11.33
2018-07-23T15:06:43.194Z,11.83
2018-07-23T15:08:55.557Z,10.97
2018-07-23T15:11:08.020Z,11.17
2018-07-23T15:13:20.572Z,10.43
2018-07-23T15:15:33.033Z,10.60
2018-07-23T15:17:45.951Z,11.50
2018-07-23T15:19:58.474Z,10.63
2018-07-23T15:22:10.872Z,11.13
2018-07-23T15:24:23.700Z,12.03
2018-07-23T15:26:36.375Z,10.47
2018-07-23T15:28:48.794Z,11.47
2018-07-23T15:31:01.408Z,12.53
2018-07-23T15:33:13.871Z,11.20
2018-07-23T15:35:26.294Z,10.53
2018-07-23T15:37:38.685Z,11.40
2018-07-23T15:39:51.332Z,10.87
2018-07-23T15:42:03.889Z,11.90
2018-07-23T15:44:16.316Z,11.97
2018-07-23T15:46:28.642Z,11.00
2018-07-23T15:48:41.062Z,11.83
2018-07-23T15:50:53.670Z,11.17
2018-07-23T15:53:06.079Z,11.17
2018-07-23T15:55:18.466Z,11.27
2018-07-23T15:57:30.856Z,10.93
2018-07-23T15:59:43.489Z,10.13
2018-07-23T16:01:55.903Z,11.53
2018-07-23T16:04:08.259Z,11.03
2018-07-23T16:06:20.664Z,11.93
2018-07-23T16:08:33.032Z,11.93
2018-07-23T16:10:45.631Z,10.80
2018-07-23T16:12:58.009Z,12.53
2018-07-23T16:15:10.411Z,11.83
2018-07-23T16:17:22.779Z,11.73
2018-07-23T16:19:35.225Z,11.87
2018-07-23T16:21:47.671Z,10.63
2018-07-23T16:24:00.138Z,10.97
2018-07-23T16:26:12.567Z,11.37
2018-07-23T16:28:25.438Z,11.97
2018-07-23T16:30:37.838Z,11.97
2018-07-23T16:32:50.143Z,10.93
2018-07-23T16:35:02.758Z,10.37
2018-07-23T16:37:15.130Z,10.40
2018-07-23T16:39:27.557Z,10.80
2018-07-23T16:41:40.000Z,10.70
2018-07-23T16:43:52.578Z,11.13
2018-07-23T16:46:04.999Z,11.27
2018-07-23T16:48:17.405Z,9.70
2018-07-23T16:50:29.817Z,10.70
2018-07-23T16:52:42.240Z,10.30
2018-07-23T16:54:54.647Z,10.20
2018-07-23T16:57:07.134Z,10.57
2018-07-23T16:59:19.818Z,10.03
2018-07-23T17:01:32.334Z,9.03
2018-07-23T17:03:44.763Z,10.73
2018-07-23T17:05:57.173Z,10.03
2018-07-23T17:08:09.710Z,10.70
2018-07-23T17:10:22.027Z,10.90
2018-07-23T17:12:34.387Z,10.70
2018-07-23T17:14:46.898Z,11.00
2018-07-23T17:16:59.240Z,10.90
2018-07-23T17:19:11.609Z,10.20
2018-07-23T17:21:23.961Z,10.83
2018-07-23T17:23:36.480Z,10.40
2018-07-23T17:25:49.192Z,11.50
2018-07-23T17:28:01.607Z,10.60
2018-07-23T17:30:14.122Z,11.10
2018-07-23T17:32:26.745Z,10.47
2018-07-23T17:34:39.114Z,11.53
2018-07-23T17:36:51.546Z,11.80
2018-07-23T17:39:07.546Z,11.47
2018-07-23T17:41:20.046Z,10.40
2018-07-23T17:43:32.527Z,11.77
2018-07-23T17:45:44.906Z,11.50
2018-07-23T17:47:57.498Z,11.03
2018-07-23T17:50:09.898Z,12.27
2018-07-23T17:52:22.318Z,10.83
2018-07-23T17:54:34.822Z,13.20
2018-07-23T17:56:47.292Z,12.37
2018-07-23T17:58:59.712Z,11.43
2018-07-23T18:01:12.194Z,11.67
2018-07-23T18:03:24.566Z,12.27
2018-07-23T18:05:37.006Z,11.37
2018-07-23T18:07:49.372Z,12.17
2018-07-23T18:10:01.937Z,10.93
2018-07-23T18:12:14.371Z,11.80
2018-07-23T18:14:26.798Z,12.33
2018-07-23T18:16:39.349Z,12.50
2018-07-23T18:18:51.723Z,11.90
2018-07-23T18:21:04.218Z,13.17
2018-07-23T18:23:16.758Z,12.13
2018-07-23T18:25:29.383Z,12.20
2018-07-23T18:27:41.803Z,12.10
2018-07-23T18:29:54.119Z,12.17
2018-07-23T18:32:06.657Z,11.27
2018-07-23T18:34:19.069Z,11.13
2018-07-23T18:36:31.464Z,9.37
2018-07-23T18:38:44.183Z,9.10
2018-07-23T18:40:56.627Z,12.33
2018-07-23T18:43:09.018Z,12.77
2018-07-23T18:45:21.441Z,15.40
2018-07-23T18:47:33.954Z,15.00
2018-07-23T18:49:55.628Z,13.37
2018-07-23T18:52:08.178Z,13.60
2018-07-23T18:54:21.670Z,13.20
2018-07-23T18:56:44.240Z,13.23
2018-07-23T18:58:56.643Z,13.63
2018-07-23T19:01:09.170Z,14.00
2018-07-23T19:03:21.635Z,13.30
2018-07-23T19:05:34.113Z,14.80
2018-07-23T19:07:46.480Z,15.10
2018-07-23T19:09:58.884Z,15.37
2018-07-23T19:12:11.812Z,15.63
2018-07-23T19:14:26.257Z,13.70
2018-07-23T19:16:39.850Z,15.70
2018-07-23T19:18:52.261Z,15.07
2018-07-23T19:21:04.735Z,14.80
2018-07-23T19:23:17.157Z,14.70
2018-07-23T19:25:29.563Z,14.20
2018-07-23T19:27:41.949Z,14.87
2018-07-23T19:29:54.353Z,15.17
2018-07-23T19:32:06.875Z,15.27
2018-07-23T19:34:19.451Z,15.60
2018-07-23T19:36:31.903Z,15.83
2018-07-23T19:38:44.289Z,14.40
2018-07-23T19:40:56.732Z,15.20
2018-07-23T19:43:09.093Z,14.63
2018-07-23T19:45:21.476Z,15.83
2018-07-23T19:47:33.868Z,15.87
2018-07-23T19:49:46.149Z,14.97
2018-07-23T19:51:58.546Z,15.03
2018-07-23T19:54:11.046Z,14.57
2018-07-23T19:56:23.514Z,15.37
2018-07-23T19:58:35.935Z,16.67
2018-07-23T20:00:48.355Z,15.53
2018-07-23T20:03:00.758Z,16.77
2018-07-23T20:05:13.275Z,16.77
2018-07-23T20:07:25.612Z,17.33
2018-07-23T20:09:38.218Z,16.83
2018-07-23T20:11:50.626Z,16.83
2018-07-23T20:14:03.051Z,16.33
2018-07-23T20:16:15.495Z,16.03
2018-07-23T20:18:27.906Z,18.20
2018-07-23T20:20:40.396Z,15.77
2018-07-23T20:22:52.842Z,16.07
2018-07-23T20:25:05.277Z,16.77
2018-07-23T20:27:17.654Z,16.63
2018-07-23T20:29:29.989Z,18.03
2018-07-23T20:31:42.358Z,17.40
2018-07-23T20:33:54.836Z,15.00
2018-07-23T20:36:07.429Z,16.73
2018-07-23T20:38:20.003Z,14.93
2018-07-23T20:40:32.427Z,17.03
2018-07-23T20:42:44.757Z,16.77
2018-07-23T20:44:57.082Z,17.17
2018-07-23T20:47:09.446Z,17.77
2018-07-23T20:49:21.775Z,17.07
2018-07-23T20:51:34.203Z,16.83
2018-07-23T20:53:46.500Z,17.00
2018-07-23T20:55:58.914Z,17.00
2018-07-23T20:58:11.482Z,17.33
2018-07-23T21:00:24.055Z,15.80
2018-07-23T21:02:36.436Z,16.23
2018-07-23T21:04:48.931Z,16.70
2018-07-23T21:07:01.297Z,15.97
2018-07-23T21:09:13.676Z,17.07
2018-07-23T21:11:26.089Z,16.30
2018-07-23T21:13:38.493Z,14.90
2018-07-23T21:15:50.885Z,15.50
2018-07-23T21:18:03.361Z,16.03
2018-07-23T21:20:15.851Z,15.70
2018-07-23T21:22:28.446Z,16.37
2018-07-23T21:24:40.800Z,16.63
2018-07-23T21:26:53.171Z,15.60
2018-07-23T21:29:05.701Z,16.47
2018-07-23T21:31:18.029Z,15.23
2018-07-23T21:33:30.394Z,15.33
2018-07-23T21:35:42.769Z,15.70
2018-07-23T21:37:55.153Z,15.57
2018-07-23T21:40:08.598Z,15.47
2018-07-23T21:42:21.110Z,15.57
2018-07-23T21:44:33.645Z,14.13
2018-07-23T21:46:46.095Z,15.00
2018-07-23T21:48:58.470Z,14.57
2018-07-23T21:51:10.822Z,17.17
2018-07-23T21:53:23.225Z,15.00
2018-07-23T21:55:35.610Z,15.90
2018-07-23T21:57:48.018Z,14.53
2018-07-23T22:00:00.390Z,15.27
2018-07-23T22:02:12.802Z,15.33
2018-07-23T22:04:25.278Z,16.17
2018-07-23T22:06:37.666Z,15.63
2018-07-23T22:08:50.787Z,15.63
2018-07-23T22:11:03.239Z,15.60
2018-07-23T22:13:15.609Z,13.63
2018-07-23T22:15:28.044Z,14.63
2018-07-23T22:17:40.433Z,16.07
2018-07-23T22:19:52.808Z,15.83
2018-07-23T22:22:05.267Z,16.13
2018-07-23T22:24:17.603Z,16.40
2018-07-23T22:26:29.976Z,15.20
2018-07-23T22:28:42.392Z,15.73
2018-07-23T22:33:42.798Z,16.03
2018-07-23T22:35:55.046Z,15.83
2018-07-23T22:38:07.352Z,14.53
2018-07-23T22:40:19.610Z,15.00
2018-07-23T22:42:32.417Z,16.07
2018-07-23T22:44:48.494Z,16.30
2018-07-23T22:47:00.735Z,16.13
2018-07-23T22:49:13.040Z,15.50
2018-07-23T22:51:25.314Z,14.60
2018-07-23T22:53:37.574Z,13.97
2018-07-23T22:55:49.894Z,15.47
2018-07-23T22:58:02.186Z,15.27
2018-07-23T23:00:14.479Z,14.23
2018-07-23T23:02:26.739Z,14.83
2018-07-23T23:04:39.015Z,14.77
2018-07-23T23:06:51.275Z,16.30
2018-07-23T23:09:06.775Z,15.83
2018-07-23T23:11:18.995Z,15.50
2018-07-23T23:13:31.275Z,14.63
2018-07-23T23:15:43.529Z,14.33
2018-07-23T23:17:55.734Z,16.43
2018-07-23T23:20:08.422Z,15.63
2018-07-23T23:22:20.594Z,14.73
2018-07-23T23:24:32.818Z,15.67
2018-07-23T23:26:45.094Z,15.73
2018-07-23T23:28:57.337Z,15.60
2018-07-23T23:31:09.594Z,16.63
2018-07-23T23:33:21.835Z,16.17
2018-07-23T23:35:34.073Z,15.90
2018-07-23T23:37:46.353Z,16.30
2018-07-23T23:39:58.622Z,15.57
2018-07-23T23:42:10.886Z,16.80
2018-07-23T23:44:23.103Z,16.33
2018-07-23T23:46:35.439Z,17.20
2018-07-23T23:48:47.645Z,18.37
2018-07-23T23:50:59.890Z,17.70
2018-07-23T23:53:12.123Z,16.93
2018-07-23T23:55:24.360Z,16.77
2018-07-23T23:57:36.588Z,16.53
2018-07-23T23:59:48.851Z,17.00
